Time,TemperatureF,DewpointF,PressureIn,WindDirection,WindDirectionDegrees,WindSpeedMPH,WindSpeedGustMPH,Humidity,HourlyPrecipIn,Conditions,Clouds,dailyrainin,SolarRadiationWatts/m^2,SoftwareType,DateUTC
2013-02-22 00:01:00,35.0,34.0,-100.00,East,85,0.0,1.0,98,0.01,,,0.15,1.000000,,2013-02-22 08:01:00,
2013-02-22 00:10:00,35.0,34.0,-100.00,SE,125,0.0,2.0,98,0.00,,,0.15,1.000000,,2013-02-22 08:10:00,
2013-02-22 00:32:00,35.0,34.0,-100.00,SE,125,0.0,2.0,98,0.00,,,0.15,1.000000,,2013-02-22 08:32:00,
2013-02-22 00:42:00,35.0,34.0,-100.00,SE,125,0.0,2.0,98,0.00,,,0.15,1.000000,,2013-02-22 08:42:00,
2013-02-22 00:52:00,35.0,34.0,-100.00,SE,125,0.0,2.0,98,0.00,,,0.15,1.000000,,2013-02-22 08:52:00,
2013-02-22 01:03:00,35.0,34.0,-100.00,SE,125,0.0,2.0,98,0.00,,,0.15,1.000000,,2013-02-22 09:03:00,
2013-02-22 01:10:00,35.0,34.0,-100.00,ENE,76,0.0,2.0,98,0.01,,,0.16,1.000000,,2013-02-22 09:10:00,
2013-02-22 01:32:00,35.0,34.0,-100.00,ENE,76,0.0,2.0,98,0.01,,,0.16,1.000000,,2013-02-22 09:32:00,
2013-02-22 01:42:00,35.0,34.0,-100.00,ENE,76,0.0,2.0,98,0.01,,,0.16,1.000000,,2013-02-22 09:42:00,
2013-02-22 01:52:00,35.0,34.0,-100.00,ENE,76,0.0,2.0,98,0.01,,,0.16,1.000000,,2013-02-22 09:52:00,
2013-02-22 02:01:00,35.0,34.0,-100.00,ENE,76,0.0,2.0,98,0.01,,,0.16,1.000000,,2013-02-22 10:01:00,
2013-02-22 02:10:00,35.0,34.0,-100.00,NW,326,0.0,2.0,98,0.01,,,0.17,1.000000,,2013-02-22 10:10:00,
2013-02-22 02:42:00,35.0,34.0,-100.00,NW,326,0.0,2.0,98,0.01,,,0.17,1.000000,,2013-02-22 10:42:00,
2013-02-22 02:52:00,35.0,34.0,-100.00,NW,326,0.0,2.0,98,0.01,,,0.17,1.000000,,2013-02-22 10:52:00,
2013-02-22 03:01:00,35.0,34.0,-100.00,NW,326,0.0,2.0,98,0.01,,,0.17,1.000000,,2013-02-22 11:01:00,
2013-02-22 03:10:00,35.0,34.0,-100.00,WNW,302,1.0,4.0,98,0.01,,,0.18,1.000000,,2013-02-22 11:10:00,
2013-02-22 03:32:00,35.0,34.0,-100.00,WNW,302,1.0,4.0,98,0.01,,,0.18,1.000000,,2013-02-22 11:32:00,
2013-02-22 03:42:00,35.0,34.0,-100.00,WNW,302,1.0,4.0,98,0.01,,,0.18,1.000000,,2013-02-22 11:42:00,
2013-02-22 03:52:00,35.0,34.0,-100.00,WNW,302,1.0,4.0,98,0.01,,,0.18,1.000000,,2013-02-22 11:52:00,
2013-02-22 04:02:00,35.0,34.0,-100.00,WNW,302,1.0,4.0,98,0.01,,,0.18,1.000000,,2013-02-22 12:02:00,
2013-02-22 04:10:00,35.0,34.0,-100.00,North,352,2.0,10.0,98,0.00,,,0.18,1.000000,,2013-02-22 12:10:00,
2013-02-22 04:32:00,35.0,34.0,-100.00,North,352,2.0,10.0,98,0.00,,,0.18,1.000000,,2013-02-22 12:32:00,
2013-02-22 04:42:00,35.0,34.0,-100.00,North,352,2.0,10.0,98,0.00,,,0.18,1.000000,,2013-02-22 12:42:00,
2013-02-22 04:52:00,35.0,34.0,-100.00,North,352,2.0,10.0,98,0.00,,,0.18,1.000000,,2013-02-22 12:52:00,
2013-02-22 05:01:00,35.0,34.0,-100.00,North,352,2.0,10.0,98,0.00,,,0.18,1.000000,,2013-02-22 13:01:00,
2013-02-22 05:10:00,35.0,34.0,-100.00,NE,49,2.0,7.0,98,0.00,,,-99.99,1.000000,,2013-02-22 13:10:00,
2013-02-22 05:42:00,35.0,34.0,-100.00,NE,49,2.0,7.0,98,0.00,,,-99.99,1.000000,,2013-02-22 13:42:00,
2013-02-22 05:52:00,35.0,34.0,-100.00,NE,49,2.0,7.0,98,0.00,,,-99.99,1.000000,,2013-02-22 13:52:00,
2013-02-22 06:01:00,35.0,34.0,-100.00,NE,49,2.0,7.0,98,0.00,,,-99.99,1.000000,,2013-02-22 14:01:00,
2013-02-22 06:10:00,37.0,35.0,-100.00,East,94,2.0,20.0,94,0.01,,,0.17,1.000000,,2013-02-22 14:10:00,
2013-02-22 06:32:00,37.0,35.0,-100.00,East,94,2.0,20.0,94,0.01,,,0.17,1.000000,,2013-02-22 14:32:00,
2013-02-22 06:42:00,37.0,35.0,-100.00,East,94,2.0,20.0,94,0.01,,,0.17,1.000000,,2013-02-22 14:42:00,
2013-02-22 06:53:00,37.0,35.0,-100.00,East,94,2.0,20.0,94,0.01,,,0.17,1.000000,,2013-02-22 14:53:00,
2013-02-22 07:01:00,37.0,35.0,-100.00,East,94,2.0,20.0,94,0.01,,,0.17,1.000000,,2013-02-22 15:01:00,
2013-02-22 07:10:00,37.0,36.0,-100.00,NNE,17,2.0,5.0,96,0.00,,,0.17,1.000000,,2013-02-22 15:10:00,
2013-02-22 07:32:00,37.0,36.0,-100.00,NNE,17,2.0,5.0,96,0.00,,,0.17,1.000000,,2013-02-22 15:32:00,
2013-02-22 07:42:00,37.0,36.0,-100.00,NNE,17,2.0,5.0,96,0.00,,,0.17,1.000000,,2013-02-22 15:42:00,
2013-02-22 07:52:00,37.0,36.0,-100.00,NNE,17,2.0,5.0,96,0.00,,,0.17,1.000000,,2013-02-22 15:52:00,
2013-02-22 08:01:00,37.0,36.0,-100.00,NNE,17,2.0,5.0,96,0.00,,,0.17,1.000000,,2013-02-22 16:01:00,
2013-02-22 08:10:00,37.0,35.0,-100.00,NW,318,2.0,9.0,94,0.03,,,0.18,7.000000,,2013-02-22 16:10:00,
2013-02-22 08:32:00,37.0,35.0,-100.00,NW,318,2.0,9.0,94,0.03,,,0.18,7.000000,,2013-02-22 16:32:00,
2013-02-22 08:42:00,37.0,35.0,-100.00,NW,318,2.0,9.0,94,0.03,,,0.18,7.000000,,2013-02-22 16:42:00,
2013-02-22 08:52:00,37.0,35.0,-100.00,NW,318,2.0,9.0,94,0.03,,,0.18,7.000000,,2013-02-22 16:52:00,
2013-02-22 09:01:00,37.0,35.0,-100.00,NW,318,2.0,9.0,94,0.03,,,0.18,7.000000,,2013-02-22 17:01:00,
2013-02-22 09:10:00,38.0,36.0,-100.00,NNE,16,2.0,7.0,94,0.11,,,0.26,11.000000,,2013-02-22 17:10:00,
2013-02-22 09:42:00,38.0,36.0,-100.00,NNE,16,2.0,7.0,94,0.11,,,0.26,11.000000,,2013-02-22 17:42:00,
2013-02-22 09:52:00,38.0,36.0,-100.00,NNE,16,2.0,7.0,94,0.11,,,0.26,11.000000,,2013-02-22 17:52:00,
2013-02-22 10:01:00,38.0,36.0,-100.00,NNE,16,2.0,7.0,94,0.11,,,0.26,11.000000,,2013-02-22 18:01:00,
2013-02-22 10:10:00,37.0,35.0,-100.00,East,86,2.0,9.0,93,0.13,,,-99.99,17.000000,,2013-02-22 18:10:00,
2013-02-22 10:32:00,37.0,35.0,-100.00,East,86,2.0,9.0,93,0.13,,,-99.99,17.000000,,2013-02-22 18:32:00,
2013-02-22 10:42:00,37.0,35.0,-100.00,East,86,2.0,9.0,93,0.13,,,-99.99,17.000000,,2013-02-22 18:42:00,
2013-02-22 10:52:00,37.0,35.0,-100.00,East,86,2.0,9.0,93,0.13,,,-99.99,17.000000,,2013-02-22 18:52:00,
2013-02-22 11:01:00,37.0,35.0,-100.00,East,86,2.0,9.0,93,0.13,,,-99.99,17.000000,,2013-02-22 19:01:00,
2013-02-22 11:10:00,37.0,35.0,-100.00,North,352,2.0,10.0,94,0.14,,,0.52,25.000000,,2013-02-22 19:10:00,
2013-02-22 11:31:00,37.0,35.0,-100.00,North,352,2.0,10.0,94,0.14,,,0.52,25.000000,,2013-02-22 19:31:00,
2013-02-22 11:42:00,37.0,35.0,-100.00,North,352,2.0,10.0,94,0.14,,,0.52,25.000000,,2013-02-22 19:42:00,
2013-02-22 11:52:00,37.0,35.0,-100.00,North,352,2.0,10.0,94,0.14,,,0.52,25.000000,,2013-02-22 19:52:00,
2013-02-22 12:01:00,37.0,35.0,-100.00,North,352,2.0,10.0,94,0.14,,,0.52,25.000000,,2013-02-22 20:01:00,
2013-02-22 12:10:00,37.0,35.0,-100.00,ENE,67,3.0,9.0,94,0.17,,,0.69,40.000000,,2013-02-22 20:10:00,
2013-02-22 12:42:00,37.0,35.0,-100.00,ENE,67,3.0,9.0,94,0.17,,,0.69,40.000000,,2013-02-22 20:42:00,
2013-02-22 12:52:00,37.0,35.0,-100.00,ENE,67,3.0,9.0,94,0.17,,,0.69,40.000000,,2013-02-22 20:52:00,
2013-02-22 13:01:00,37.0,35.0,-100.00,ENE,67,3.0,9.0,94,0.17,,,0.69,40.000000,,2013-02-22 21:01:00,
2013-02-22 13:10:00,37.0,36.0,-100.00,NNE,12,1.0,7.0,95,0.14,,,0.80,45.000000,,2013-02-22 21:10:00,
2013-02-22 13:42:00,37.0,36.0,-100.00,NNE,12,1.0,7.0,95,0.14,,,0.80,45.000000,,2013-02-22 21:42:00,
2013-02-22 13:52:00,37.0,36.0,-100.00,NNE,12,1.0,7.0,95,0.14,,,0.80,45.000000,,2013-02-22 21:52:00,
2013-02-22 14:01:00,37.0,36.0,-100.00,NNE,12,1.0,7.0,95,0.14,,,0.80,45.000000,,2013-02-22 22:01:00,
2013-02-22 14:10:00,38.0,37.0,-100.00,NW,321,1.0,4.0,95,0.11,,,0.90,56.000000,,2013-02-22 22:10:00,
2013-02-22 14:42:00,38.0,37.0,-100.00,NW,321,1.0,4.0,95,0.11,,,0.90,56.000000,,2013-02-22 22:42:00,
2013-02-22 14:52:00,38.0,37.0,-100.00,NW,321,1.0,4.0,95,0.11,,,0.90,56.000000,,2013-02-22 22:52:00,
2013-02-22 15:01:00,38.0,37.0,-100.00,NW,321,1.0,4.0,95,0.11,,,0.90,56.000000,,2013-02-22 23:01:00,
2013-02-22 15:10:00,39.0,38.0,-100.00,WNW,291,0.0,5.0,96,0.03,,,0.92,79.000000,,2013-02-22 23:10:00,
2013-02-22 15:42:00,39.0,38.0,-100.00,WNW,291,0.0,5.0,96,0.03,,,0.92,79.000000,,2013-02-22 23:42:00,
2013-02-22 15:52:00,39.0,38.0,-100.00,WNW,291,0.0,5.0,96,0.03,,,0.92,79.000000,,2013-02-22 23:52:00,
2013-02-22 16:01:00,39.0,38.0,-100.00,WNW,291,0.0,5.0,96,0.03,,,0.92,79.000000,,2013-02-23 00:01:00,
2013-02-22 16:10:00,39.0,36.0,-100.00,West,265,3.0,11.0,88,0.05,,,0.97,79.000000,,2013-02-23 00:10:00,
2013-02-22 16:32:00,39.0,36.0,-100.00,West,265,3.0,11.0,88,0.05,,,0.97,79.000000,,2013-02-23 00:32:00,
2013-02-22 16:42:00,39.0,36.0,-100.00,West,265,3.0,11.0,88,0.05,,,0.97,79.000000,,2013-02-23 00:42:00,
2013-02-22 16:52:00,39.0,36.0,-100.00,West,265,3.0,11.0,88,0.05,,,0.97,79.000000,,2013-02-23 00:52:00,
2013-02-22 17:01:00,39.0,36.0,-100.00,West,265,3.0,11.0,88,0.05,,,0.97,79.000000,,2013-02-23 01:01:00,
2013-02-22 17:10:00,38.0,36.0,-100.00,NNW,347,0.0,6.0,94,0.04,,,1.00,22.000000,,2013-02-23 01:10:00,
2013-02-22 17:32:00,38.0,36.0,-100.00,NNW,347,0.0,6.0,94,0.04,,,1.00,22.000000,,2013-02-23 01:32:00,
2013-02-22 17:42:00,38.0,36.0,-100.00,NNW,347,0.0,6.0,94,0.04,,,1.00,22.000000,,2013-02-23 01:42:00,
2013-02-22 17:52:00,38.0,36.0,-100.00,NNW,347,0.0,6.0,94,0.04,,,1.00,22.000000,,2013-02-23 01:52:00,
2013-02-22 18:01:00,38.0,36.0,-100.00,NNW,347,0.0,6.0,94,0.04,,,1.00,22.000000,,2013-02-23 02:01:00,
2013-02-22 18:10:00,37.0,36.0,-100.00,West,260,2.0,6.0,96,0.00,,,1.00,4.000000,,2013-02-23 02:10:00,
2013-02-22 18:32:00,37.0,36.0,-100.00,West,260,2.0,6.0,96,0.00,,,1.00,4.000000,,2013-02-23 02:32:00,
2013-02-22 18:42:00,37.0,36.0,-100.00,West,260,2.0,6.0,96,0.00,,,1.00,4.000000,,2013-02-23 02:42:00,
2013-02-22 18:52:00,37.0,36.0,-100.00,West,260,2.0,6.0,96,0.00,,,1.00,4.000000,,2013-02-23 02:52:00,
2013-02-22 19:01:00,37.0,36.0,-100.00,West,260,2.0,6.0,96,0.00,,,1.00,4.000000,,2013-02-23 03:01:00,
2013-02-22 19:10:00,36.0,33.0,-100.00,NNE,16,2.0,11.0,89,0.01,,,1.01,1.000000,,2013-02-23 03:10:00,
2013-02-22 19:32:00,36.0,33.0,-100.00,NNE,16,2.0,11.0,89,0.01,,,1.01,1.000000,,2013-02-23 03:32:00,
2013-02-22 19:42:00,36.0,33.0,-100.00,NNE,16,2.0,11.0,89,0.01,,,1.01,1.000000,,2013-02-23 03:42:00,
2013-02-22 19:52:00,36.0,33.0,-100.00,NNE,16,2.0,11.0,89,0.01,,,1.01,1.000000,,2013-02-23 03:52:00,
2013-02-22 20:01:00,36.0,33.0,-100.00,NNE,16,2.0,11.0,89,0.01,,,1.01,1.000000,,2013-02-23 04:01:00,
2013-02-22 20:10:00,35.0,32.0,-100.00,NE,52,2.0,9.0,89,0.00,,,1.01,1.000000,,2013-02-23 04:10:00,
2013-02-22 20:32:00,35.0,32.0,-100.00,NE,52,2.0,9.0,89,0.00,,,1.01,1.000000,,2013-02-23 04:32:00,
2013-02-22 20:42:00,35.0,32.0,-100.00,NE,52,2.0,9.0,89,0.00,,,1.01,1.000000,,2013-02-23 04:42:00,
2013-02-22 20:52:00,35.0,32.0,-100.00,NE,52,2.0,9.0,89,0.00,,,1.01,1.000000,,2013-02-23 04:52:00,
2013-02-22 21:01:00,35.0,32.0,-100.00,NE,52,2.0,9.0,89,0.00,,,1.01,1.000000,,2013-02-23 05:01:00,
2013-02-22 21:10:00,34.0,31.0,-100.00,North,351,2.0,10.0,89,0.01,,,1.02,1.000000,,2013-02-23 05:10:00,
2013-02-22 21:42:00,34.0,31.0,-100.00,North,351,2.0,10.0,89,0.01,,,1.02,1.000000,,2013-02-23 05:42:00,
2013-02-22 21:52:00,34.0,31.0,-100.00,North,351,2.0,10.0,89,0.01,,,1.02,1.000000,,2013-02-23 05:52:00,
2013-02-22 22:01:00,34.0,31.0,-100.00,North,351,2.0,10.0,89,0.01,,,1.02,1.000000,,2013-02-23 06:01:00,
2013-02-22 22:10:00,33.0,32.0,-100.00,East,87,0.0,4.0,96,0.00,,,1.02,1.000000,,2013-02-23 06:10:00,
2013-02-22 22:32:00,33.0,32.0,-100.00,East,87,0.0,4.0,96,0.00,,,1.02,1.000000,,2013-02-23 06:32:00,
2013-02-22 22:42:00,33.0,32.0,-100.00,East,87,0.0,4.0,96,0.00,,,1.02,1.000000,,2013-02-23 06:42:00,
2013-02-22 22:52:00,33.0,32.0,-100.00,East,87,0.0,4.0,96,0.00,,,1.02,1.000000,,2013-02-23 06:52:00,
2013-02-22 23:01:00,33.0,32.0,-100.00,East,87,0.0,4.0,96,0.00,,,1.02,1.000000,,2013-02-23 07:01:00,
2013-02-22 23:10:00,33.0,32.0,-100.00,South,173,1.0,5.0,95,0.00,,,1.01,1.000000,,2013-02-23 07:10:00,
2013-02-22 23:32:00,33.0,32.0,-100.00,South,173,1.0,5.0,95,0.00,,,1.01,1.000000,,2013-02-23 07:32:00,
2013-02-22 23:42:00,33.0,32.0,-100.00,South,173,1.0,5.0,95,0.00,,,1.01,1.000000,,2013-02-23 07:42:00,
2013-02-22 23:52:00,33.0,32.0,-100.00,South,173,1.0,5.0,95,0.00,,,1.01,1.000000,,2013-02-23 07:52:00,